Time;durP1;ratioP1;P1;durP2;ratioP2;P2;SDS_P1;SDS_P2;PMS_P1;PMS_P2;Temp;Humidity;BMP_temperature;BMP_pressure;BME280_temperature;BME280_humidity;BME280_pressure;Samples;Min_cycle;Max_cycle;Signal;HPM_P1;HPM_P2
2023/09/02 00:00:10;;;;;;;;;;;;;;;19.84;65.47;100628.03;4945029;28;6796;-72
2023/09/02 00:02:35;;;;;;;;;;;;;;;19.79;65.45;100621.88;4940604;28;6811;-73
2023/09/02 00:05:01;;;;;;;;;;;;;;;19.75;65.33;100625.31;4937007;28;6868;-72
2023/09/02 00:07:27;;;;;;;;;;;;;;;19.70;65.15;100616.56;4976824;28;7039;-72
2023/09/02 00:09:52;;;;;;;;;;;;;;;19.63;64.73;100615.59;4934271;28;7190;-72
2023/09/02 00:12:18;;;;;;;;;;;;;;;19.58;65.15;100612.09;4939966;28;6788;-72
2023/09/02 00:14:43;;;;;;;;;;;;;;;19.51;65.41;100615.44;4941486;28;6962;-72
2023/09/02 00:17:09;;;;;;;;;;;;;;;19.45;65.17;100621.44;4944349;28;6815;-72
2023/09/02 00:19:34;;;;;;;;;;;;;;;19.38;65.20;100610.06;4941520;28;6788;-73
2023/09/02 00:21:59;;;;;;;;;;;;;;;19.36;65.28;100616.09;4934294;28;8408;-73
2023/09/02 00:24:25;;;;;;;;;;;;;;;19.33;65.49;100610.84;4974242;28;7431;-73
2023/09/02 00:26:51;;;;;;;;;;;;;;;19.31;65.23;100618.63;4959366;28;7786;-73
2023/09/02 00:29:16;;;;;;;;;;;;;;;19.28;65.61;100614.25;4944706;28;6772;-73
2023/09/02 00:31:41;;;;;;;;;;;;;;;19.26;65.63;100615.06;4960826;28;7007;-73
2023/09/02 00:34:07;;;;;;;;;;;;;;;19.25;65.68;100616.78;4974294;28;7182;-73
2023/09/02 00:36:32;;;;;;;;;;;;;;;19.26;65.67;100615.94;4941147;28;7216;-73
2023/09/02 00:38:59;;;;;;;;;;;;;;;19.28;66.34;100618.56;4945801;28;6975;-72
2023/09/02 00:41:35;;;;;;;;;;;;;;;19.31;66.42;100615.13;4937375;28;7024;-73
2023/09/02 00:44:01;;;;;;;;;;;;;;;19.31;66.45;100616.00;4940399;28;8581;-73
2023/09/02 00:46:27;;;;;;;;;;;;;;;19.34;65.87;100612.59;4957744;28;7012;-73
2023/09/02 00:48:54;;;;;;;;;;;;;;;19.35;66.51;100614.34;4942665;28;7054;-73
2023/09/02 00:51:20;;;;;;;;;;;;;;;19.38;66.49;100616.97;4976500;28;7129;-73
2023/09/02 00:53:45;;;;;;;;;;;;;;;19.38;66.42;100617.88;4939883;28;6974;-73
2023/09/02 00:56:15;;;;;;;;;;;;;;;19.39;66.14;100622.22;4961250;28;7272;-73
2023/09/02 00:58:41;;;;;;;;;;;;;;;19.38;65.63;100620.47;4945121;28;7155;-73
2023/09/02 01:01:08;;;;;;;;;;;;;;;19.37;66.34;100623.91;4942255;28;6839;-73
2023/09/02 01:03:37;;;;;;;;;;;;;;;19.37;65.83;100621.31;4960210;28;6804;-73
2023/09/02 01:06:03;;;;;;;;;;;;;;;19.38;66.69;100620.47;4949626;28;6859;-73
2023/09/02 01:08:33;;;;;;;;;;;;;;;19.40;66.31;100613.56;4961684;28;7298;-73
2023/09/02 01:10:59;;;;;;;;;;;;;;;19.44;66.39;100614.47;4957578;28;7937;-73
2023/09/02 01:13:25;;;;;;;;;;;;;;;19.47;66.56;100617.13;4960763;28;6963;-73
2023/09/02 01:15:53;;;;;;;;;;;;;;;19.52;67.05;100618.06;4955684;28;7095;-73
2023/09/02 01:18:18;;;;;;;;;;;;;;;19.55;66.90;100625.03;4955864;28;6986;-73
2023/09/02 01:21:20;;;;;;;;;;;;;;;19.56;67.10;100614.66;4956355;28;6948;-73
2023/09/02 01:24:01;;;;;;;;;;;;;;;19.57;67.38;100624.19;4943110;28;7273;-73
2023/09/02 01:27:04;;;;;;;;;;;;;;;19.60;66.55;100630.28;4960043;28;7930;-73
2023/09/02 01:29:34;;;;;;;;;;;;;;;19.61;67.49;100634.66;4945601;28;6827;-73
2023/09/02 01:32:01;;;;;;;;;;;;;;;19.63;66.92;100632.94;4956185;28;6998;-73
2023/09/02 01:34:29;;;;;;;;;;;;;;;19.64;66.90;100629.50;4942142;28;6843;-73
2023/09/02 01:36:58;;;;;;;;;;;;;;;19.66;67.14;100625.19;4963297;28;6815;-72
2023/09/02 01:39:26;;;;;;;;;;;;;;;19.68;66.91;100626.06;4952335;28;6848;-73
2023/09/02 01:41:53;;;;;;;;;;;;;;;19.71;66.85;100624.41;4940760;28;6980;-73
2023/09/02 01:44:19;;;;;;;;;;;;;;;19.74;66.74;100623.56;4958225;28;6804;-73
2023/09/02 01:46:49;;;;;;;;;;;;;;;19.76;66.27;100624.44;4976453;28;7092;-73
2023/09/02 01:49:15;;;;;;;;;;;;;;;19.76;66.47;100632.25;4939838;28;6816;-73
2023/09/02 01:51:42;;;;;;;;;;;;;;;19.77;66.68;100636.59;4979132;28;6820;-73
2023/09/02 01:54:08;;;;;;;;;;;;;;;19.77;66.50;100643.53;4928964;28;7050;-73
2023/09/02 01:56:34;;;;;;;;;;;;;;;19.78;66.69;100638.34;4977897;28;7211;-73
2023/09/02 01:58:59;;;;;;;;;;;;;;;19.79;66.93;100631.44;4940600;28;7538;-73
2023/09/02 02:01:25;;;;;;;;;;;;;;;19.80;66.68;100638.38;4940811;28;7056;-73
2023/09/02 02:04:05;;;;;;;;;;;;;;;19.80;66.66;100639.25;4944268;28;6773;-73
2023/09/02 02:06:32;;;;;;;;;;;;;;;19.83;66.40;100643.59;4961370;28;6991;-73
2023/09/02 02:09:12;;;;;;;;;;;;;;;19.85;66.88;100647.97;4974522;28;6796;-74
2023/09/02 02:11:38;;;;;;;;;;;;;;;19.88;66.84;100654.97;4961641;28;7011;-73
2023/09/02 02:14:05;;;;;;;;;;;;;;;19.88;66.90;100654.06;4957538;28;6935;-73
2023/09/02 02:16:31;;;;;;;;;;;;;;;19.88;67.04;100656.69;4975556;28;7455;-73
2023/09/02 02:18:58;;;;;;;;;;;;;;;19.87;66.56;100644.53;4941286;28;6982;-74
2023/09/02 02:21:23;;;;;;;;;;;;;;;19.85;66.47;100647.97;4944509;28;8133;-73
2023/09/02 02:23:49;;;;;;;;;;;;;;;19.83;66.26;100648.81;4945824;28;7135;-74
2023/09/02 02:26:16;;;;;;;;;;;;;;;19.78;66.13;100646.16;4975301;28;6800;-74
2023/09/02 02:28:42;;;;;;;;;;;;;;;19.74;66.69;100649.56;4959675;28;6817;-74
2023/09/02 02:31:08;;;;;;;;;;;;;;;19.69;66.47;100646.91;4971577;28;7619;-73
2023/09/02 02:33:36;;;;;;;;;;;;;;;19.65;65.99;100649.44;4941193;28;6991;-74
2023/09/02 02:36:02;;;;;;;;;;;;;;;19.61;66.19;100653.72;4940262;28;7157;-73
2023/09/02 02:38:28;;;;;;;;;;;;;;;19.56;66.45;100652.78;4940516;28;6780;-74
2023/09/02 02:40:53;;;;;;;;;;;;;;;19.53;65.87;100642.31;4943911;28;7020;-73
2023/09/02 02:43:25;;;;;;;;;;;;;;;19.50;66.31;100639.69;4937086;28;6804;-74
2023/09/02 02:45:51;;;;;;;;;;;;;;;19.48;66.31;100637.06;4957582;28;7055;-74
2023/09/02 02:48:17;;;;;;;;;;;;;;;19.48;66.69;100641.41;4941626;28;6796;-73
2023/09/02 02:50:42;;;;;;;;;;;;;;;19.47;66.86;100648.31;4941679;28;6780;-73
2023/09/02 02:53:08;;;;;;;;;;;;;;;19.47;65.99;100652.66;4944172;28;6780;-74
2023/09/02 02:55:33;;;;;;;;;;;;;;;19.43;66.33;100654.31;4944500;28;6792;-73
2023/09/02 02:57:59;;;;;;;;;;;;;;;19.39;65.38;100657.72;4947800;28;7055;-74
2023/09/02 03:00:24;;;;;;;;;;;;;;;19.34;65.50;100659.38;4946130;28;7381;-73
2023/09/02 03:02:53;;;;;;;;;;;;;;;19.29;65.86;100661.91;4946078;28;6891;-74
2023/09/02 03:05:20;;;;;;;;;;;;;;;19.25;65.87;100671.34;4953945;28;6971;-74
2023/09/02 03:07:47;;;;;;;;;;;;;;;19.23;65.62;100675.66;4942924;28;6808;-74
2023/09/02 03:10:12;;;;;;;;;;;;;;;19.19;66.36;100673.00;4944798;28;6799;-74
2023/09/02 03:12:38;;;;;;;;;;;;;;;19.16;65.75;100673.81;4972188;28;6776;-73
2023/09/02 03:15:04;;;;;;;;;;;;;;;19.14;66.33;100670.31;4947912;28;8072;-74
2023/09/02 03:17:30;;;;;;;;;;;;;;;19.13;66.18;100676.34;4939801;28;7046;-73
2023/09/02 03:19:55;;;;;;;;;;;;;;;19.12;66.23;100680.66;4960793;28;6982;-73
2023/09/02 03:22:21;;;;;;;;;;;;;;;19.14;66.54;100678.09;4944322;28;6844;-74
2023/09/02 03:24:46;;;;;;;;;;;;;;;19.17;66.97;100682.44;4938097;28;7214;-74
2023/09/02 03:27:12;;;;;;;;;;;;;;;19.23;66.95;100677.38;4938879;28;6780;-73
2023/09/02 03:29:37;;;;;;;;;;;;;;;19.24;66.56;100685.19;4937283;28;6869;-73
2023/09/02 03:32:03;;;;;;;;;;;;;;;19.24;66.18;100682.59;4971548;28;6805;-73
2023/09/02 03:34:28;;;;;;;;;;;;;;;19.26;65.87;100688.69;4936179;28;7028;-73
2023/09/02 03:36:54;;;;;;;;;;;;;;;19.24;66.21;100679.13;4959403;28;7270;-73
2023/09/02 03:39:19;;;;;;;;;;;;;;;19.21;65.74;100682.53;4972419;28;6950;-73
2023/09/02 03:41:45;;;;;;;;;;;;;;;19.17;66.08;100683.34;4974070;28;6808;-73
2023/09/02 03:44:11;;;;;;;;;;;;;;;19.12;65.64;100682.38;4956123;28;6788;-73
2023/09/02 03:46:36;;;;;;;;;;;;;;;19.08;65.44;100691.88;4974676;28;6953;-73
2023/09/02 03:49:02;;;;;;;;;;;;;;;19.01;65.48;100690.84;4936983;28;6792;-73
2023/09/02 03:51:28;;;;;;;;;;;;;;;18.95;65.72;100688.13;4960047;28;6859;-73
2023/09/02 03:53:54;;;;;;;;;;;;;;;18.90;65.91;100687.16;4957313;28;7102;-73
2023/09/02 03:56:20;;;;;;;;;;;;;;;18.87;65.95;100682.78;4974025;28;6935;-73
2023/09/02 03:58:45;;;;;;;;;;;;;;;18.86;66.39;100686.22;4956898;28;6967;-73
2023/09/02 04:01:12;;;;;;;;;;;;;;;18.89;66.71;100690.59;4935750;28;6955;-73
2023/09/02 04:03:38;;;;;;;;;;;;;;;18.91;66.52;100688.91;4941120;28;8059;-73
2023/09/02 04:06:04;;;;;;;;;;;;;;;18.93;66.89;100679.44;4955599;28;6796;-73
2023/09/02 04:08:34;;;;;;;;;;;;;;;18.95;67.13;100680.34;4974216;28;6788;-73
2023/09/02 04:11:01;;;;;;;;;;;;;;;18.95;66.98;100675.16;4957618;28;6816;-73
2023/09/02 04:13:28;;;;;;;;;;;;;;;18.97;66.41;100678.66;4952159;28;7193;-73
2023/09/02 04:15:58;;;;;;;;;;;;;;;18.96;66.18;100676.91;4943725;28;6879;-73
2023/09/02 04:18:24;;;;;;;;;;;;;;;18.92;65.58;100672.47;4940652;28;7020;-73
2023/09/02 04:20:50;;;;;;;;;;;;;;;18.90;65.92;100678.50;4957651;28;7250;-73
2023/09/02 04:23:16;;;;;;;;;;;;;;;18.88;66.28;100681.97;4954881;28;6848;-73
2023/09/02 04:25:44;;;;;;;;;;;;;;;18.87;66.23;100681.94;4973076;28;7261;-73
2023/09/02 04:28:09;;;;;;;;;;;;;;;18.87;66.11;100689.72;4956406;28;7201;-74
2023/09/02 04:30:35;;;;;;;;;;;;;;;18.85;65.94;100687.06;4974544;28;6864;-74
2023/09/02 04:33:00;;;;;;;;;;;;;;;18.81;66.13;100687.00;4933392;28;10081;-74
2023/09/02 04:35:26;;;;;;;;;;;;;;;18.79;65.84;100687.00;4921785;28;7049;-74
2023/09/02 04:37:51;;;;;;;;;;;;;;;18.77;66.28;100690.41;4974880;28;7303;-73
2023/09/02 04:40:17;;;;;;;;;;;;;;;18.73;66.22;100692.94;4938222;28;6866;-73
2023/09/02 04:42:43;;;;;;;;;;;;;;;18.72;66.20;100682.50;4970679;28;7284;-74
2023/09/02 04:45:08;;;;;;;;;;;;;;;18.71;66.13;100684.22;4955192;28;6946;-74
2023/09/02 04:47:34;;;;;;;;;;;;;;;18.69;66.15;100685.91;4937270;28;7179;-73
2023/09/02 04:50:00;;;;;;;;;;;;;;;18.64;66.12;100677.19;4955564;28;6861;-75
2023/09/02 04:52:26;;;;;;;;;;;;;;;18.60;66.06;100678.84;4960949;28;6974;-74
2023/09/02 04:54:51;;;;;;;;;;;;;;;18.57;65.74;100680.50;4941858;28;6862;-75
2023/09/02 04:57:17;;;;;;;;;;;;;;;18.56;66.05;100681.34;4918311;28;6971;-74
2023/09/02 04:59:42;;;;;;;;;;;;;;;18.54;65.50;100683.00;4938589;28;9918;-74
2023/09/02 05:02:08;;;;;;;;;;;;;;;18.52;65.86;100687.31;4939045;28;6843;-74
2023/09/02 05:04:34;;;;;;;;;;;;;;;18.51;66.02;100688.16;4954446;28;7087;-74
2023/09/02 05:07:00;;;;;;;;;;;;;;;18.53;65.77;100689.06;4933069;28;7382;-75
2023/09/02 05:09:25;;;;;;;;;;;;;;;18.53;66.59;100689.06;4969797;28;7142;-75
2023/09/02 05:11:51;;;;;;;;;;;;;;;18.57;66.35;100696.06;4939382;28;7068;-75
2023/09/02 05:14:16;;;;;;;;;;;;;;;18.60;66.51;100690.94;4940631;28;7005;-75
2023/09/02 05:16:41;;;;;;;;;;;;;;;18.64;66.70;100691.88;4939532;28;6953;-75
2023/09/02 05:19:07;;;;;;;;;;;;;;;18.67;66.63;100695.41;4941924;28;6945;-75
2023/09/02 05:21:33;;;;;;;;;;;;;;;18.70;66.64;100700.66;4973111;28;6966;-74
2023/09/02 05:23:58;;;;;;;;;;;;;;;18.75;66.64;100713.72;4974266;28;8452;-75
2023/09/02 05:26:23;;;;;;;;;;;;;;;18.80;67.10;100713.81;4943577;28;7485;-75
2023/09/02 05:28:49;;;;;;;;;;;;;;;18.85;66.70;100712.19;4940933;28;6787;-75
2023/09/02 05:31:14;;;;;;;;;;;;;;;18.91;67.31;100722.66;4977355;28;6803;-74
2023/09/02 05:33:40;;;;;;;;;;;;;;;18.97;67.08;100728.00;4944483;28;6787;-74
2023/09/02 05:36:05;;;;;;;;;;;;;;;19.04;67.20;100722.97;4941219;28;6980;-74
2023/09/02 05:38:31;;;;;;;;;;;;;;;19.10;67.07;100733.44;4938050;28;7036;-75
2023/09/02 05:40:56;;;;;;;;;;;;;;;19.17;67.22;100735.31;4935891;28;6947;-75
2023/09/02 05:43:24;;;;;;;;;;;;;;;19.23;67.09;100740.63;4978628;28;7044;-75
2023/09/02 05:45:50;;;;;;;;;;;;;;;19.32;67.51;100733.84;4945563;28;7317;-74
2023/09/02 05:48:16;;;;;;;;;;;;;;;19.39;67.62;100738.25;4940262;28;6948;-75
2023/09/02 05:50:42;;;;;;;;;;;;;;;19.46;67.46;100739.25;4944814;28;7017;-75
2023/09/02 05:53:08;;;;;;;;;;;;;;;19.55;67.49;100737.69;4939285;28;6959;-75
2023/09/02 05:55:34;;;;;;;;;;;;;;;19.63;67.22;100747.34;4971146;28;6799;-74
2023/09/02 05:57:59;;;;;;;;;;;;;;;19.68;67.56;100743.97;4929256;28;7003;-75
2023/09/02 06:00:25;;;;;;;;;;;;;;;19.74;67.28;100739.69;4942506;28;6984;-75
2023/09/02 06:02:51;;;;;;;;;;;;;;;19.78;66.45;100742.38;4974560;28;6973;-75
2023/09/02 06:05:16;;;;;;;;;;;;;;;19.82;66.61;100749.38;4944230;28;7106;-75
2023/09/02 06:07:41;;;;;;;;;;;;;;;19.88;66.93;100752.91;4942008;28;6929;-75
2023/09/02 06:10:07;;;;;;;;;;;;;;;19.92;66.63;100752.13;4942613;28;6820;-75
2023/09/02 06:12:33;;;;;;;;;;;;;;;19.98;66.88;100763.53;4959294;28;7213;-75
2023/09/02 06:14:58;;;;;;;;;;;;;;;20.04;67.02;100770.53;4975434;28;6929;-75
2023/09/02 06:17:24;;;;;;;;;;;;;;;20.10;66.70;100765.44;4943331;28;7283;-75
2023/09/02 06:19:49;;;;;;;;;;;;;;;20.16;66.91;100769.84;4940748;28;7164;-75
2023/09/02 06:22:15;;;;;;;;;;;;;;;20.25;66.60;100761.28;4937862;28;7461;-75
2023/09/02 06:24:40;;;;;;;;;;;;;;;20.36;66.95;100769.25;4969372;28;6868;-75
2023/09/02 06:27:06;;;;;;;;;;;;;;;20.47;66.80;100771.97;4974634;28;6787;-75
2023/09/02 06:29:32;;;;;;;;;;;;;;;20.59;67.02;100779.06;4958748;28;6792;-75
2023/09/02 06:31:58;;;;;;;;;;;;;;;20.70;66.76;100774.00;4939336;28;7027;-75
2023/09/02 06:34:24;;;;;;;;;;;;;;;20.82;66.87;100784.59;4976822;28;7229;-75
2023/09/02 06:36:49;;;;;;;;;;;;;;;20.93;66.86;100788.19;4957795;28;6784;-75
2023/09/02 06:39:15;;;;;;;;;;;;;;;21.04;66.65;100783.13;4945276;28;6820;-75
2023/09/02 06:41:42;;;;;;;;;;;;;;;21.12;66.48;100791.00;4957904;28;7901;-74
2023/09/02 06:44:08;;;;;;;;;;;;;;;21.20;66.66;100793.72;4939856;28;6875;-75
2023/09/02 06:46:35;;;;;;;;;;;;;;;21.29;66.29;100790.31;4940891;28;7157;-75
2023/09/02 06:49:00;;;;;;;;;;;;;;;21.37;66.21;100799.09;4945307;28;6795;-75
2023/09/02 06:51:26;;;;;;;;;;;;;;;21.48;66.64;100807.88;4940723;28;7023;-75
2023/09/02 06:53:51;;;;;;;;;;;;;;;21.61;66.70;100810.59;4950678;28;7209;-75
2023/09/02 06:56:17;;;;;;;;;;;;;;;21.74;66.60;100809.88;4944920;28;7042;-75
2023/09/02 06:58:43;;;;;;;;;;;;;;;21.90;66.13;100807.38;4974311;28;6840;-75
2023/09/02 07:01:35;;;;;;;;;;;;;;;22.01;66.39;100813.53;4935322;28;7506;-75
2023/09/02 07:04:00;;;;;;;;;;;;;;;22.09;65.92;100811.00;4938483;28;6808;-75
2023/09/02 07:06:26;;;;;;;;;;;;;;;22.17;65.48;100818.88;4956678;28;7144;-75
2023/09/02 07:08:51;;;;;;;;;;;;;;;22.25;65.72;100824.16;4935647;28;6958;-75
2023/09/02 07:11:17;;;;;;;;;;;;;;;22.33;65.72;100825.06;4956118;28;7053;-75
2023/09/02 07:13:45;;;;;;;;;;;;;;;22.43;65.89;100828.63;4957570;28;7291;-75
2023/09/02 07:16:11;;;;;;;;;;;;;;;22.58;65.53;100836.56;4944549;28;7190;-73
2023/09/02 07:18:37;;;;;;;;;;;;;;;22.75;66.04;100835.78;4974398;28;7209;-74
2023/09/02 07:21:03;;;;;;;;;;;;;;;22.90;65.60;100842.81;4972070;28;6771;-74
2023/09/02 07:23:30;;;;;;;;;;;;;;;23.06;65.25;100848.09;4960133;28;6808;-74
2023/09/02 07:26:01;;;;;;;;;;;;;;;23.21;65.11;100848.13;4938161;28;6780;-73
2023/09/02 07:28:30;;;;;;;;;;;;;;;23.36;65.21;100855.16;4944853;28;7056;-74
2023/09/02 07:30:58;;;;;;;;;;;;;;;23.48;64.54;100856.09;4956408;28;6966;-74
2023/09/02 07:33:24;;;;;;;;;;;;;;;23.58;64.46;100850.84;4951886;28;8462;-74
2023/09/02 07:35:49;;;;;;;;;;;;;;;23.72;64.60;100855.25;4967325;28;6787;-74
2023/09/02 07:38:15;;;;;;;;;;;;;;;23.85;64.50;100856.09;4953792;28;6804;-73
2023/09/02 07:40:41;;;;;;;;;;;;;;;23.99;64.16;100864.81;4938367;28;7058;-74
2023/09/02 07:43:06;;;;;;;;;;;;;;;24.10;64.46;100861.38;4959735;28;7151;-73
2023/09/02 07:45:32;;;;;;;;;;;;;;;24.19;63.44;100850.00;4941894;28;6795;-74
2023/09/02 07:47:57;;;;;;;;;;;;;;;24.25;63.16;100857.84;4940555;28;7378;-73
2023/09/02 07:50:23;;;;;;;;;;;;;;;24.33;62.62;100863.06;4970739;28;6979;-74
2023/09/02 07:52:48;;;;;;;;;;;;;;;24.41;63.09;100871.78;4941312;28;6954;-74
2023/09/02 07:55:14;;;;;;;;;;;;;;;24.49;62.77;100854.31;4973746;28;6969;-74
2023/09/02 07:57:39;;;;;;;;;;;;;;;24.61;62.14;100865.63;4938310;28;6788;-74
2023/09/02 08:00:06;;;;;;;;;;;;;;;24.70;62.35;100849.88;4961071;28;7217;-74
2023/09/02 08:02:31;;;;;;;;;;;;;;;24.83;62.30;100853.34;4967179;28;6879;-74
2023/09/02 08:04:57;;;;;;;;;;;;;;;24.96;61.72;100864.66;4939880;28;6982;-74
2023/09/02 08:07:22;;;;;;;;;;;;;;;25.08;61.79;100864.59;4976296;28;7039;-73
2023/09/02 08:09:49;;;;;;;;;;;;;;;25.21;61.31;100870.66;4941969;28;7140;-74
2023/09/02 08:12:14;;;;;;;;;;;;;;;25.35;61.56;100867.06;4975664;28;6979;-74
2023/09/02 08:14:40;;;;;;;;;;;;;;;25.48;61.27;100876.63;4942502;28;6796;-74
2023/09/02 08:17:05;;;;;;;;;;;;;;;25.59;60.46;100879.22;4949545;28;6792;-74
2023/09/02 08:19:31;;;;;;;;;;;;;;;25.70;60.44;100883.50;4974485;28;6966;-74
2023/09/02 08:21:57;;;;;;;;;;;;;;;25.85;60.30;100885.16;4957040;28;6800;-74
2023/09/02 08:24:22;;;;;;;;;;;;;;;26.02;60.14;100877.13;4958963;28;6959;-74
2023/09/02 08:26:48;;;;;;;;;;;;;;;26.24;60.19;100879.56;4972421;28;6950;-74
2023/09/02 08:29:13;;;;;;;;;;;;;;;26.44;59.31;100884.66;4939186;28;6788;-74
2023/09/02 08:31:39;;;;;;;;;;;;;;;26.61;58.86;100889.72;4941765;28;7002;-74
2023/09/02 08:34:04;;;;;;;;;;;;;;;26.73;58.28;100884.31;4938385;28;6784;-74
2023/09/02 08:36:30;;;;;;;;;;;;;;;26.78;58.39;100875.50;4938304;28;6966;-74
2023/09/02 08:38:55;;;;;;;;;;;;;;;26.79;57.67;100882.50;4946681;28;6860;-74
2023/09/02 08:41:31;;;;;;;;;;;;;;;26.80;57.37;100890.38;4934367;28;6819;-74
2023/09/02 08:44:01;;;;;;;;;;;;;;;26.82;57.42;100896.50;4948389;28;6857;-73
2023/09/02 08:46:27;;;;;;;;;;;;;;;26.85;57.66;100885.06;4942358;28;6828;-73
2023/09/02 08:48:55;;;;;;;;;;;;;;;26.86;57.40;100885.03;4940249;28;6984;-73
2023/09/02 08:51:24;;;;;;;;;;;;;;;26.88;57.03;100887.69;4944281;28;6837;-72
2023/09/02 08:53:52;;;;;;;;;;;;;;;26.90;56.77;100893.78;4958453;28;6839;-72
2023/09/02 08:56:17;;;;;;;;;;;;;;;26.91;56.65;100887.63;4954440;28;6860;-73
2023/09/02 08:58:43;;;;;;;;;;;;;;;26.94;56.55;100882.31;4944601;28;6784;-73
2023/09/02 09:01:13;;;;;;;;;;;;;;;26.96;56.42;100891.09;4960951;28;7242;-73
2023/09/02 09:03:41;;;;;;;;;;;;;;;27.01;56.37;100886.63;4974326;28;6812;-73
2023/09/02 09:06:09;;;;;;;;;;;;;;;27.13;56.56;100888.22;4953210;28;7040;-73
2023/09/02 09:08:35;;;;;;;;;;;;;;;27.38;57.10;100887.03;4946317;28;7206;-73
2023/09/02 09:11:04;;;;;;;;;;;;;;;27.65;56.43;100895.44;4942152;28;6780;-73
2023/09/02 09:13:31;;;;;;;;;;;;;;;27.87;55.87;100893.34;4961994;28;6875;-73
2023/09/02 09:15:58;;;;;;;;;;;;;;;28.12;55.19;100893.78;4953540;28;9283;-73
2023/09/02 09:18:24;;;;;;;;;;;;;;;28.37;54.06;100889.88;4942174;28;7033;-73
2023/09/02 09:20:50;;;;;;;;;;;;;;;28.55;54.12;100886.88;4943571;28;6800;-73
2023/09/02 09:23:15;;;;;;;;;;;;;;;28.71;53.20;100891.84;4975879;28;6795;-74
2023/09/02 09:25:42;;;;;;;;;;;;;;;28.82;52.68;100891.63;4945743;28;6796;-73
2023/09/02 09:28:12;;;;;;;;;;;;;;;28.85;52.33;100891.59;4928393;28;7325;-73
2023/09/02 09:30:38;;;;;;;;;;;;;;;28.88;53.06;100881.00;4960676;28;6808;-73
2023/09/02 09:33:07;;;;;;;;;;;;;;;28.92;52.45;100876.50;4938298;28;7157;-72
2023/09/02 09:35:34;;;;;;;;;;;;;;;28.99;52.95;100882.53;4924393;28;7322;-73
2023/09/02 09:38:00;;;;;;;;;;;;;;;29.16;52.13;100890.94;4960178;28;7038;-73
2023/09/02 09:40:34;;;;;;;;;;;;;;;29.32;51.94;100891.47;4960303;28;6819;-73
2023/09/02 09:43:01;;;;;;;;;;;;;;;29.49;51.38;100898.16;4975374;28;7010;-73
2023/09/02 09:45:28;;;;;;;;;;;;;;;29.63;51.39;100900.47;4945443;28;7131;-73
2023/09/02 09:47:58;;;;;;;;;;;;;;;29.87;50.68;100909.56;4977537;28;6808;-73
2023/09/02 09:50:24;;;;;;;;;;;;;;;30.33;50.55;100918.13;4960811;28;6812;-73
2023/09/02 09:53:16;;;;;;;;;;;;;;;31.08;49.62;100910.75;4940490;28;6788;-73
2023/09/02 09:55:42;;;;;;;;;;;;;;;31.64;47.52;100918.81;4945172;28;6835;-73
2023/09/02 09:58:07;;;;;;;;;;;;;;;31.86;46.38;100916.34;4942141;28;6985;-72
2023/09/02 10:00:33;;;;;;;;;;;;;;;32.20;46.07;100920.50;4960251;28;6819;-72
2023/09/02 10:03:00;;;;;;;;;;;;;;;32.59;44.77;100926.28;4958966;28;6939;-72
2023/09/02 10:05:26;;;;;;;;;;;;;;;32.94;43.28;100925.00;4936617;28;7090;-72
2023/09/02 10:08:08;;;;;;;;;;;;;;;32.93;43.22;100935.66;4942958;28;7059;-72
2023/09/02 10:10:38;;;;;;;;;;;;;;;32.67;43.49;100937.47;4958619;28;6868;-72
2023/09/02 10:13:05;;;;;;;;;;;;;;;32.34;43.59;100933.28;4975865;28;6823;-72
2023/09/02 10:15:31;;;;;;;;;;;;;;;31.98;44.25;100933.63;4940727;28;7249;-72
2023/09/02 10:18:02;;;;;;;;;;;;;;;31.97;44.79;100927.47;4944424;28;6990;-72
2023/09/02 10:20:32;;;;;;;;;;;;;;;32.11;44.27;100931.44;4941905;28;6849;-72
2023/09/02 10:23:04;;;;;;;;;;;;;;;32.39;42.99;100918.09;4956434;28;7332;-72
2023/09/02 10:25:49;;;;;;;;;;;;;;;32.43;42.13;100929.47;4944074;28;6947;-73
2023/09/02 10:28:21;;;;;;;;;;;;;;;32.36;41.81;100938.53;4946288;28;7111;-72
2023/09/02 10:30:48;;;;;;;;;;;;;;;32.07;42.13;100932.47;4941339;28;7019;-73
2023/09/02 10:33:26;;;;;;;;;;;;;;;31.64;42.85;100943.50;4974554;28;7153;-73
2023/09/02 10:36:00;;;;;;;;;;;;;;;31.23;43.30;100946.53;4943459;28;6860;-72
2023/09/02 10:38:28;;;;;;;;;;;;;;;30.89;43.83;100945.72;4956477;28;6820;-72
2023/09/02 10:41:14;;;;;;;;;;;;;;;31.01;45.16;100948.94;4958566;28;7358;-72
2023/09/02 10:43:41;;;;;;;;;;;;;;;31.75;43.86;100947.59;4960039;28;6970;-73
2023/09/02 10:46:08;;;;;;;;;;;;;;;32.89;44.13;100941.97;4950825;28;7019;-72
2023/09/02 10:48:36;;;;;;;;;;;;;;;34.04;41.40;100940.19;4943300;28;7059;-73
2023/09/02 10:51:04;;;;;;;;;;;;;;;34.84;40.21;100940.28;4956854;28;7102;-73
2023/09/02 10:53:48;;;;;;;;;;;;;;;35.49;38.68;100937.28;4941835;28;6808;-73
2023/09/02 10:56:24;;;;;;;;;;;;;;;35.40;37.48;100938.59;4946244;28;6864;-73
2023/09/02 10:58:50;;;;;;;;;;;;;;;35.03;37.37;100935.00;4955866;28;7289;-72
2023/09/02 11:01:15;;;;;;;;;;;;;;;34.19;37.19;100939.56;4933682;28;6808;-72
2023/09/02 11:03:45;;;;;;;;;;;;;;;33.15;38.86;100940.16;4944455;28;6784;-73
2023/09/02 11:06:14;;;;;;;;;;;;;;;32.19;39.54;100945.28;4939411;28;7037;-72
2023/09/02 11:08:44;;;;;;;;;;;;;;;31.40;40.88;100943.38;4959473;28;7125;-72
2023/09/02 11:11:10;;;;;;;;;;;;;;;30.75;42.65;100955.81;4958243;28;7252;-71
2023/09/02 11:14:07;;;;;;;;;;;;;;;30.39;42.92;100958.53;4937084;28;7152;-72
2023/09/02 11:16:38;;;;;;;;;;;;;;;30.75;43.61;100956.69;4941083;28;7016;-73
2023/09/02 11:19:08;;;;;;;;;;;;;;;31.53;43.47;100959.75;4957056;28;7258;-72
2023/09/02 11:21:40;;;;;;;;;;;;;;;32.09;41.89;100949.19;4969960;28;7052;-73
2023/09/02 11:24:22;;;;;;;;;;;;;;;32.57;41.01;100958.16;4973811;28;7015;-73
2023/09/02 11:26:56;;;;;;;;;;;;;;;33.05;40.00;100945.81;4959582;28;7310;-74
2023/09/02 11:29:26;;;;;;;;;;;;;;;33.74;39.48;100938.72;4961281;28;6979;-75
2023/09/02 11:32:00;;;;;;;;;;;;;;;34.58;37.94;100937.03;4958209;28;6812;-74
2023/09/02 11:34:26;;;;;;;;;;;;;;;35.06;36.38;100941.97;4943940;28;7243;-74
2023/09/02 11:36:58;;;;;;;;;;;;;;;35.47;35.79;100939.16;4936468;28;6820;-74
2023/09/02 11:39:29;;;;;;;;;;;;;;;35.91;35.64;100945.91;4938917;28;7191;-75
2023/09/02 11:42:12;;;;;;;;;;;;;;;36.49;35.03;100951.00;4958508;28;7198;-75
2023/09/02 11:44:39;;;;;;;;;;;;;;;36.87;34.69;100960.59;4942466;28;6994;-74
2023/09/02 11:47:05;;;;;;;;;;;;;;;37.18;33.88;100969.63;4935397;28;6997;-75
2023/09/02 11:49:30;;;;;;;;;;;;;;;36.89;34.03;100962.22;4975380;28;6812;-74
2023/09/02 11:51:56;;;;;;;;;;;;;;;36.00;34.22;100968.56;4973556;28;7222;-75
2023/09/02 11:54:22;;;;;;;;;;;;;;;34.90;35.49;100969.31;4971720;28;6788;-74
2023/09/02 11:56:58;;;;;;;;;;;;;;;33.92;36.63;100984.94;4957950;28;7394;-74
2023/09/02 11:59:24;;;;;;;;;;;;;;;33.19;36.94;100984.25;4955945;28;7283;-74
2023/09/02 12:02:19;;;;;;;;;;;;;;;32.55;38.00;100982.09;4957463;28;7260;-74
2023/09/02 12:04:44;;;;;;;;;;;;;;;32.50;38.77;100977.84;4957421;28;7253;-74
2023/09/02 12:07:10;;;;;;;;;;;;;;;33.08;38.00;100971.41;4942209;28;7083;-74
2023/09/02 12:09:37;;;;;;;;;;;;;;;33.72;37.64;100974.28;4939117;28;6856;-74
2023/09/02 12:12:03;;;;;;;;;;;;;;;34.39;36.68;100974.19;4958784;28;8488;-74
2023/09/02 12:14:28;;;;;;;;;;;;;;;34.98;35.35;100966.28;4960549;28;6950;-74
2023/09/02 12:16:55;;;;;;;;;;;;;;;35.28;35.32;100977.34;4957357;28;6949;-74
2023/09/02 12:19:21;;;;;;;;;;;;;;;35.05;35.07;100981.06;4944146;28;6967;-74
2023/09/02 12:21:47;;;;;;;;;;;;;;;34.71;35.33;100991.44;4939835;28;6821;-74
2023/09/02 12:24:13;;;;;;;;;;;;;;;34.21;35.82;100982.03;4939841;28;6792;-74
2023/09/02 12:26:46;;;;;;;;;;;;;;;33.71;37.13;100978.72;4944602;28;7156;-74
2023/09/02 12:29:20;;;;;;;;;;;;;;;33.27;37.08;100978.63;4939999;28;6804;-74
2023/09/02 12:31:58;;;;;;;;;;;;;;;32.74;37.62;100984.09;4954582;28;7006;-74
2023/09/02 12:34:24;;;;;;;;;;;;;;;32.22;38.39;100979.66;4940081;28;6999;-74
2023/09/02 12:36:50;;;;;;;;;;;;;;;31.79;39.11;100987.19;4932464;28;7391;-74
2023/09/02 12:39:24;;;;;;;;;;;;;;;31.52;39.53;100983.63;4937838;28;6821;-74
2023/09/02 12:41:49;;;;;;;;;;;;;;;31.20;39.90;100988.09;4954648;28;6799;-74
2023/09/02 12:44:16;;;;;;;;;;;;;;;30.88;39.77;100983.66;4954804;28;6980;-76
2023/09/02 12:46:42;;;;;;;;;;;;;;;31.20;40.72;100985.44;4973439;28;6968;-75
2023/09/02 12:49:09;;;;;;;;;;;;;;;31.97;40.27;100982.25;4957382;28;6964;-76